Погода Брылина неделю

Могилёвская область, Белоруссия

22 - 28 мая
  • 22мая
    Сегодня
    +13°
    +24°
    Пасмурно, дожди с грозами
    ВремяПогодаТемператураВлажностьДавлениеВетер, м/сВероятность осадков
    00:00Облачно с прояснениями+15°C79 %747 мм3.2 м/с3 %
    03:00Облачно с прояснениями+14°C85 %747 мм2.5 м/с5 %
    06:00Облачно с прояснениями+14°C88 %747 мм2.0 м/с9 %
    09:00Практически безоблачно+18°C74 %748 мм2.2 м/с5 %
    12:00Практически безоблачно+23°C56 %748 мм3.0 м/с12 %
    15:00Пасмурно, дожди с грозами+22°C58 %747 мм2.6 м/с48 %
    18:00Небольшая облачность, ливень+19°C81 %747 мм2.5 м/с59 %
    21:00Небольшая облачность+16°C90 %748 мм2.8 м/с4 %
  • 23мая
    Четверг
    +12°
    +23°
    Ясно и безоблачно
    ВремяПогодаТемператураВлажностьДавлениеВетер, м/сВероятность осадков
    00:00Ясно и безоблачно+15°C94 %748 мм2.9 м/с2 %
    03:00Ясно и безоблачно+14°C95 %749 мм3.3 м/с2 %
    06:00Ясно и безоблачно+14°C95 %749 мм4.0 м/с1 %
    09:00Ясно и безоблачно+18°C78 %750 мм3.9 м/с2 %
    12:00Ясно и безоблачно+22°C61 %751 мм4.6 м/с6 %
    15:00Ясно и безоблачно+23°C52 %751 мм5.3 м/с11 %
    18:00Ясно и безоблачно+21°C51 %750 мм5.5 м/с20 %
    21:00Ясно и безоблачно+18°C63 %751 мм3.9 м/с2 %
  • 24мая
    Пятница
    +11°
    +22°
    Ясно и безоблачно
    ВремяПогодаТемператураВлажностьДавлениеВетер, м/сВероятность осадков
    00:00Ясно и безоблачно+16°C67 %752 мм5.4 м/с2 %
    03:00Ясно и безоблачно+13°C66 %753 мм5.0 м/с2 %
    06:00Ясно и безоблачно+12°C63 %754 мм5.0 м/с1 %
    09:00Ясно и безоблачно+16°C55 %755 мм4.3 м/с2 %
    12:00Ясно и безоблачно+21°C49 %755 мм4.5 м/с2 %
    15:00Ясно и безоблачно+22°C44 %754 мм4.6 м/с2 %
    18:00Ясно и безоблачно+20°C46 %754 мм4.6 м/с2 %
    21:00Ясно и безоблачно+16°C61 %754 мм3.5 м/с2 %
  • 25мая
    Суббота
    +10°
    +23°
    Ясно и безоблачно
    ВремяПогодаТемператураВлажностьДавлениеВетер, м/сВероятность осадков
    00:00Ясно и безоблачно+14°C70 %754 мм3.8 м/с2 %
    03:00Ясно и безоблачно+12°C73 %754 мм3.9 м/с2 %
    06:00Ясно и безоблачно+12°C67 %754 мм3.9 м/с2 %
    09:00Ясно и безоблачно+17°C49 %754 мм3.7 м/с3 %
    12:00Ясно и безоблачно+22°C40 %754 мм3.8 м/с3 %
    15:00Ясно и безоблачно+23°C38 %753 мм4.0 м/с2 %
    18:00Ясно и безоблачно+22°C40 %752 мм3.5 м/с5 %
    21:00Ясно и безоблачно+17°C55 %752 мм2.8 м/с2 %
  • 26мая
    Воскресенье
    +11°
    +24°
    Небольшая облачность
    ВремяПогодаТемператураВлажностьДавлениеВетер, м/сВероятность осадков
    00:00Ясно и безоблачно+13°C67 %752 мм2.3 м/с2 %
    03:00Ясно и безоблачно+11°C78 %752 мм2.2 м/с2 %
    06:00Ясно и безоблачно+11°C81 %752 мм2.1 м/с4 %
    09:00Облачно с прояснениями+18°C59 %753 мм1.9 м/с3 %
    12:00Облачно с прояснениями+22°C37 %753 мм2.5 м/с2 %
    15:00Небольшая облачность+23°C36 %753 мм2.4 м/с3 %
    18:00Ясно и безоблачно+22°C37 %752 мм2.0 м/с5 %
    21:00Ясно и безоблачно+17°C63 %752 мм2.2 м/с3 %
Мы используем cookies
Соглашаюсь